Weather forecast for Shopky (Шопки Лагодів)

Ukraine, 275 m
N49.740, E24.519


Sounding

Red line — air temperature ˚C.
Blue line — thermal bubble temperature ˚C.
Green line — dew point temperature ˚C.
Wind speed is in meters per second.

Table forecast

GFS 0.25˚ model

temp. wind gust humid. clouds prec. press. hpbl
Sat18 00:00 2 278.0 w 1 1 96 99 0.8 1023 34
03:00 2 315.0 nw 1 1 97 99 1.9 1022 22
06:00 2 355.0 n 0 0 96 100 1.5 1021 22
09:00 2 43.0 ne 1 1 95 100 2.9 1020 22
12:00 3 337.0 nnw 1 1 90 100 1.5 1019 189
15:00 4 315.0 nw 1 1 86 100 2.7 1018 284
18:00 3 290.0 wnw 1 2 92 100 0.4 1016 56
21:00 3 281.0 w 2 4 94 100 0.6 1015 269
 
Sun19 00:00 3 240.0 wsw 2 3 92 99 0.1 1014 95
03:00 2 238.0 wsw 2 5 90 98 0.2 1013 226
06:00 2 217.0 sw 3 5 92 100 0.0 1011 193
09:00 1 234.0 sw 3 7 91 99 0.0 1011 290
12:00 3 276.0 w 5 8 79 98 0.3 1011 746
15:00 5 265.0 w 5 7 69 78 0.4 1010 1067
18:00 2 233.0 sw 3 4 83 3 0.0 1011 83
21:00 1 219.0 sw 3 4 87 2 0.0 1011 94
 
Mon20 00:00 -0 207.0 ssw 3 4 90 1 0.0 1010 92
03:00 -0 200.0 ssw 3 7 89 0 0.0 1010 152
06:00 2 244.0 wsw 5 12 77 57 0.3 1010 769
09:00 0 238.0 wsw 5 12 86 47 0.3 1010 412
12:00 3 257.0 wsw 9 13 71 71 0.1 1011 1417
15:00 3 271.0 w 9 14 75 83 0.3 1011 1221
18:00 1 275.0 w 7 13 76 99 0.3 1012 958
21:00 -0 275.0 w 5 13 84 52 0.3 1013 590
 
Tue21 00:00 -1 266.0 w 5 11 92 1 0.0 1014 369
03:00 -1 260.0 w 4 10 92 15 0.0 1014 354
06:00 -1 244.0 wsw 3 8 91 65 0.1 1012 218
09:00 1 220.0 sw 1 2 83 82 0.2 1012 50
12:00 2 204.0 ssw 2 2 80 99 0.3 1012 333
15:00 3 253.0 wsw 0 1 81 97 0.3 1011 398
18:00 1 327.0 nnw 0 0 90 89 0.1 1012 22
21:00 1 333.0 nnw 1 1 89 90 0.1 1014 21
 
Wed22 00:00 0 344.0 nnw 2 2 86 82 0.1 1016 36
03:00 0 348.0 nnw 1 1 80 78 0.1 1018 21
06:00 -2 317.0 nw 2 2 91 27 0.0 1019 21
09:00 -2 291.0 wnw 1 1 93 14 0.0 1021 21
12:00 0 253.0 wsw 2 2 77 79 0.0 1022 330
15:00 2 212.0 ssw 2 3 69 88 0.0 1021 443
18:00 1 168.0 sse 3 4 80 78 0.0 1022 98
21:00 1 169.0 s 4 7 80 77 0.0 1022 196
 

0.038 s